الصفحة الرئيسية
METAR-TAF:

METAR-TAF

مطار :

مطار ماريسكال سوكري الدولي

كيتو, الإكوادور

دائرة عرض: 0-06-48S, خط طول: 78-21-31W, ارتفاع: 2400 متر

مراقبة الطقس الحالي

تاريخ ووقت الإصدار 48 دقيقة قبل الساعة 06:00UTC
ريح 5 عقدة من الشرق/الجنوب الشرقي
درجة الحرارة 8°درجة مئوية
الرطوبة 66%
ضغط 1026 hPa
الرؤية 10 كم أو أكثر
غيوم قليلة على ارتفاع 1500 قدم

METAR: SEQM 160600Z 11005KT 9999 FEW015 08/02 Q1026 NOSIG RMK A3031

زمن: 01:48 (06:48 UTC)

توقعات

تاريخ ووقت الإصدار 2ساعات و 18 دقيقة قبل الساعة 04:30UTC
التوقعات صالحة من16 الساعة 06 UTC إلى 17 الساعة 06 UTC
ريح عقدة من الشمال
الرؤية 10 كم أو أكثر
الغيوم لا تقل 1500 م ولا وجود لمزنة ركامية السحاب الأسود
من 16 الساعة 1300 UTC
ريح 3 عقدةمن اتجاهات متغيرة
الرؤية 10 كم أو أكثر
غيوم قليلة على ارتفاع 3300 قدم
أصبح
من 16 الساعة 16 UTC إلى 16 الساعة 18 UTC
ريح 10 عقدة من الشرق/الجنوب الشرقي
أصبح
من 16 الساعة 20 UTC إلى 16 الساعة 23 UTC
ريح 4 عقدة من الشمال/الشمال الشرقي

TAF: SEQM 160430Z 1606/1706 00000KT CAVOK FM161300 VRB03KT 9999 FEW033 BECMG 1616/1618 12010KT BECMG 1620/1623 03004KT TX25/1619Z TN06/1611Z

أرصاد الطقس والتوقعات من أكثر من 4000 مطار (تقارير الطقس للمطار METAR والتنبؤ بالطقس بالمطارTAF).

المحطات المتاحة هي النقط الصفراء والحمراء على الخريطة.

حرك المؤشر فوق النقطة لمعرفة اسم المحطة.

ثم انقر لمعرفة أرصاد وتوقعات الطقس.

لتغيير الخارطة: اضغط على الأزرار الخضراء مع رمز الصليب الأسود للتكبير. على الزر الأخضر مع شرطة للتصغير، أو على الأسهم الخضراء للخرائط المجاورة.


METAR-TAF: